sensor_id;sensor_type;location;lat;lon;timestamp;P1;durP1;ratioP1;P2;durP2;ratioP2
26920;SDS011;14483;47.844;9.660;2024-03-25T00:00:08;1.05;;;0.57;;
26920;SDS011;14483;47.844;9.660;2024-03-25T00:02:36;2.97;;;0.70;;
26920;SDS011;14483;47.844;9.660;2024-03-25T00:05:02;1.75;;;0.60;;
26920;SDS011;14483;47.844;9.660;2024-03-25T00:07:28;1.83;;;0.63;;
26920;SDS011;14483;47.844;9.660;2024-03-25T00:09:53;4.15;;;0.60;;
26920;SDS011;14483;47.844;9.660;2024-03-25T00:12:20;5.57;;;0.45;;
26920;SDS011;14483;47.844;9.660;2024-03-25T00:14:47;1.52;;;0.47;;
26920;SDS011;14483;47.844;9.660;2024-03-25T00:17:13;2.78;;;0.80;;
26920;SDS011;14483;47.844;9.660;2024-03-25T00:19:39;1.77;;;0.40;;
26920;SDS011;14483;47.844;9.660;2024-03-25T00:22:07;3.70;;;0.40;;
26920;SDS011;14483;47.844;9.660;2024-03-25T00:24:32;2.10;;;0.50;;
26920;SDS011;14483;47.844;9.660;2024-03-25T00:26:59;1.65;;;0.47;;
26920;SDS011;14483;47.844;9.660;2024-03-25T00:29:24;1.70;;;0.73;;
26920;SDS011;14483;47.844;9.660;2024-03-25T00:31:52;2.55;;;0.60;;
26920;SDS011;14483;47.844;9.660;2024-03-25T00:34:17;1.25;;;0.60;;
26920;SDS011;14483;47.844;9.660;2024-03-25T00:36:43;3.35;;;0.73;;
26920;SDS011;14483;47.844;9.660;2024-03-25T00:39:09;1.15;;;0.50;;
26920;SDS011;14483;47.844;9.660;2024-03-25T00:41:36;5.70;;;0.85;;
26920;SDS011;14483;47.844;9.660;2024-03-25T00:44:01;2.00;;;0.60;;
26920;SDS011;14483;47.844;9.660;2024-03-25T00:46:28;1.98;;;0.50;;
26920;SDS011;14483;47.844;9.660;2024-03-25T00:48:54;1.20;;;0.43;;
26920;SDS011;14483;47.844;9.660;2024-03-25T00:51:21;1.77;;;0.63;;
26920;SDS011;14483;47.844;9.660;2024-03-25T00:53:46;4.47;;;0.40;;
26920;SDS011;14483;47.844;9.660;2024-03-25T00:56:13;1.05;;;0.47;;
26920;SDS011;14483;47.844;9.660;2024-03-25T00:58:38;2.05;;;0.55;;
26920;SDS011;14483;47.844;9.660;2024-03-25T01:01:04;1.40;;;0.52;;
26920;SDS011;14483;47.844;9.660;2024-03-25T01:03:30;5.13;;;0.77;;
26920;SDS011;14483;47.844;9.660;2024-03-25T01:05:57;2.05;;;0.40;;
26920;SDS011;14483;47.844;9.660;2024-03-25T01:08:23;1.83;;;0.43;;
26920;SDS011;14483;47.844;9.660;2024-03-25T01:10:49;0.85;;;0.47;;
26920;SDS011;14483;47.844;9.660;2024-03-25T01:13:14;1.92;;;0.80;;
26920;SDS011;14483;47.844;9.660;2024-03-25T01:15:41;2.58;;;0.40;;
26920;SDS011;14483;47.844;9.660;2024-03-25T01:18:07;2.90;;;0.68;;
26920;SDS011;14483;47.844;9.660;2024-03-25T01:20:33;0.73;;;0.40;;
26920;SDS011;14483;47.844;9.660;2024-03-25T01:23:01;1.75;;;0.60;;
26920;SDS011;14483;47.844;9.660;2024-03-25T01:25:26;1.30;;;0.60;;
26920;SDS011;14483;47.844;9.660;2024-03-25T01:27:52;0.70;;;0.35;;
26920;SDS011;14483;47.844;9.660;2024-03-25T01:30:18;1.70;;;0.70;;
26920;SDS011;14483;47.844;9.660;2024-03-25T01:32:44;4.07;;;0.68;;
26920;SDS011;14483;47.844;9.660;2024-03-25T01:35:11;2.97;;;0.70;;
26920;SDS011;14483;47.844;9.660;2024-03-25T01:37:38;3.42;;;1.00;;
26920;SDS011;14483;47.844;9.660;2024-03-25T01:40:05;1.98;;;0.60;;
26920;SDS011;14483;47.844;9.660;2024-03-25T01:42:32;2.80;;;0.60;;
26920;SDS011;14483;47.844;9.660;2024-03-25T01:44:58;1.40;;;0.52;;
26920;SDS011;14483;47.844;9.660;2024-03-25T01:47:24;1.80;;;0.80;;
26920;SDS011;14483;47.844;9.660;2024-03-25T01:49:50;3.55;;;0.60;;
26920;SDS011;14483;47.844;9.660;2024-03-25T01:52:18;1.35;;;0.65;;
26920;SDS011;14483;47.844;9.660;2024-03-25T01:54:44;3.22;;;0.63;;
26920;SDS011;14483;47.844;9.660;2024-03-25T01:57:12;2.17;;;0.50;;
26920;SDS011;14483;47.844;9.660;2024-03-25T01:59:38;2.58;;;0.60;;
26920;SDS011;14483;47.844;9.660;2024-03-25T02:02:05;1.45;;;0.65;;
26920;SDS011;14483;47.844;9.660;2024-03-25T02:04:30;3.42;;;1.00;;
26920;SDS011;14483;47.844;9.660;2024-03-25T02:06:57;1.98;;;0.65;;
26920;SDS011;14483;47.844;9.660;2024-03-25T02:09:23;2.38;;;0.80;;
26920;SDS011;14483;47.844;9.660;2024-03-25T02:11:50;2.28;;;0.52;;
26920;SDS011;14483;47.844;9.660;2024-03-25T02:14:17;3.53;;;0.75;;
26920;SDS011;14483;47.844;9.660;2024-03-25T02:16:44;2.45;;;0.43;;
26920;SDS011;14483;47.844;9.660;2024-03-25T02:19:09;1.67;;;0.50;;
26920;SDS011;14483;47.844;9.660;2024-03-25T02:21:37;1.52;;;0.65;;
26920;SDS011;14483;47.844;9.660;2024-03-25T02:24:03;1.85;;;0.80;;
26920;SDS011;14483;47.844;9.660;2024-03-25T02:26:33;2.88;;;0.70;;
26920;SDS011;14483;47.844;9.660;2024-03-25T02:28:58;1.83;;;0.68;;
26920;SDS011;14483;47.844;9.660;2024-03-25T02:31:25;1.17;;;0.63;;
26920;SDS011;14483;47.844;9.660;2024-03-25T02:33:50;2.28;;;0.70;;
26920;SDS011;14483;47.844;9.660;2024-03-25T02:36:16;2.28;;;1.08;;
26920;SDS011;14483;47.844;9.660;2024-03-25T02:38:42;1.92;;;0.68;;
26920;SDS011;14483;47.844;9.660;2024-03-25T02:41:08;1.65;;;0.68;;
26920;SDS011;14483;47.844;9.660;2024-03-25T02:43:35;1.60;;;1.00;;
26920;SDS011;14483;47.844;9.660;2024-03-25T02:46:01;2.10;;;0.73;;
26920;SDS011;14483;47.844;9.660;2024-03-25T02:48:27;2.17;;;0.95;;
26920;SDS011;14483;47.844;9.660;2024-03-25T02:50:53;1.83;;;0.77;;
26920;SDS011;14483;47.844;9.660;2024-03-25T02:53:18;2.03;;;0.52;;
26920;SDS011;14483;47.844;9.660;2024-03-25T02:55:45;1.55;;;0.57;;
26920;SDS011;14483;47.844;9.660;2024-03-25T02:58:10;2.22;;;0.77;;
26920;SDS011;14483;47.844;9.660;2024-03-25T03:00:38;3.15;;;0.70;;
26920;SDS011;14483;47.844;9.660;2024-03-25T03:03:03;1.92;;;0.80;;
26920;SDS011;14483;47.844;9.660;2024-03-25T03:05:30;3.03;;;0.70;;
26920;SDS011;14483;47.844;9.660;2024-03-25T03:07:55;3.70;;;0.85;;
26920;SDS011;14483;47.844;9.660;2024-03-25T03:10:21;3.10;;;0.70;;
26920;SDS011;14483;47.844;9.660;2024-03-25T03:12:47;4.95;;;1.20;;
26920;SDS011;14483;47.844;9.660;2024-03-25T03:15:13;2.90;;;1.13;;
26920;SDS011;14483;47.844;9.660;2024-03-25T03:17:41;2.65;;;0.77;;
26920;SDS011;14483;47.844;9.660;2024-03-25T03:20:08;2.42;;;0.73;;
26920;SDS011;14483;47.844;9.660;2024-03-25T03:22:35;4.38;;;0.90;;
26920;SDS011;14483;47.844;9.660;2024-03-25T03:25:01;3.13;;;0.90;;
26920;SDS011;14483;47.844;9.660;2024-03-25T03:27:27;1.60;;;0.80;;
26920;SDS011;14483;47.844;9.660;2024-03-25T03:29:53;1.38;;;0.68;;
26920;SDS011;14483;47.844;9.660;2024-03-25T03:32:19;3.05;;;1.10;;
26920;SDS011;14483;47.844;9.660;2024-03-25T03:34:47;4.10;;;0.98;;
26920;SDS011;14483;47.844;9.660;2024-03-25T03:37:12;1.23;;;0.73;;
26920;SDS011;14483;47.844;9.660;2024-03-25T03:39:38;1.92;;;0.85;;
26920;SDS011;14483;47.844;9.660;2024-03-25T03:42:04;3.35;;;1.10;;
26920;SDS011;14483;47.844;9.660;2024-03-25T03:44:30;5.28;;;1.15;;
26920;SDS011;14483;47.844;9.660;2024-03-25T03:46:56;4.10;;;1.08;;
26920;SDS011;14483;47.844;9.660;2024-03-25T03:49:22;3.33;;;1.13;;
26920;SDS011;14483;47.844;9.660;2024-03-25T03:51:49;1.73;;;0.80;;
26920;SDS011;14483;47.844;9.660;2024-03-25T03:54:15;2.85;;;0.80;;
26920;SDS011;14483;47.844;9.660;2024-03-25T03:56:40;5.22;;;0.93;;
26920;SDS011;14483;47.844;9.660;2024-03-25T03:59:07;5.55;;;0.93;;
26920;SDS011;14483;47.844;9.660;2024-03-25T04:01:32;4.40;;;1.08;;
26920;SDS011;14483;47.844;9.660;2024-03-25T04:03:58;1.25;;;0.60;;
26920;SDS011;14483;47.844;9.660;2024-03-25T04:06:24;5.75;;;0.95;;
26920;SDS011;14483;47.844;9.660;2024-03-25T04:08:52;1.85;;;0.70;;
26920;SDS011;14483;47.844;9.660;2024-03-25T04:11:17;5.65;;;0.85;;
26920;SDS011;14483;47.844;9.660;2024-03-25T04:13:43;5.43;;;1.55;;
26920;SDS011;14483;47.844;9.660;2024-03-25T04:16:11;1.60;;;0.77;;
26920;SDS011;14483;47.844;9.660;2024-03-25T04:18:37;2.97;;;1.08;;
26920;SDS011;14483;47.844;9.660;2024-03-25T04:21:03;5.70;;;1.00;;
26920;SDS011;14483;47.844;9.660;2024-03-25T04:23:29;3.10;;;0.95;;
26920;SDS011;14483;47.844;9.660;2024-03-25T04:25:56;3.22;;;0.80;;
26920;SDS011;14483;47.844;9.660;2024-03-25T04:28:27;6.88;;;1.63;;
26920;SDS011;14483;47.844;9.660;2024-03-25T04:30:53;1.30;;;0.60;;
26920;SDS011;14483;47.844;9.660;2024-03-25T04:33:19;2.85;;;0.73;;
26920;SDS011;14483;47.844;9.660;2024-03-25T04:35:45;1.50;;;0.80;;
26920;SDS011;14483;47.844;9.660;2024-03-25T04:38:11;4.30;;;0.70;;
26920;SDS011;14483;47.844;9.660;2024-03-25T04:40:37;5.45;;;1.05;;
26920;SDS011;14483;47.844;9.660;2024-03-25T04:43:04;2.20;;;0.68;;
26920;SDS011;14483;47.844;9.660;2024-03-25T04:45:29;3.75;;;0.68;;
26920;SDS011;14483;47.844;9.660;2024-03-25T04:47:55;2.10;;;0.90;;
26920;SDS011;14483;47.844;9.660;2024-03-25T04:50:20;2.13;;;0.70;;
26920;SDS011;14483;47.844;9.660;2024-03-25T04:52:46;2.40;;;0.88;;
26920;SDS011;14483;47.844;9.660;2024-03-25T04:55:11;2.75;;;0.80;;
26920;SDS011;14483;47.844;9.660;2024-03-25T04:57:36;2.72;;;0.77;;
26920;SDS011;14483;47.844;9.660;2024-03-25T05:00:04;4.20;;;0.90;;
26920;SDS011;14483;47.844;9.660;2024-03-25T05:02:30;3.67;;;0.98;;
26920;SDS011;14483;47.844;9.660;2024-03-25T05:04:55;2.22;;;0.88;;
26920;SDS011;14483;47.844;9.660;2024-03-25T05:07:20;4.10;;;0.80;;
26920;SDS011;14483;47.844;9.660;2024-03-25T05:09:47;4.57;;;0.80;;
26920;SDS011;14483;47.844;9.660;2024-03-25T05:12:12;4.95;;;1.13;;
26920;SDS011;14483;47.844;9.660;2024-03-25T05:14:38;1.90;;;0.82;;
26920;SDS011;14483;47.844;9.660;2024-03-25T05:17:05;2.65;;;0.70;;
26920;SDS011;14483;47.844;9.660;2024-03-25T05:19:30;2.03;;;0.80;;
26920;SDS011;14483;47.844;9.660;2024-03-25T05:21:56;1.77;;;0.80;;
26920;SDS011;14483;47.844;9.660;2024-03-25T05:24:21;3.63;;;1.15;;
26920;SDS011;14483;47.844;9.660;2024-03-25T05:26:47;2.92;;;1.42;;
26920;SDS011;14483;47.844;9.660;2024-03-25T05:29:12;7.18;;;2.47;;
26920;SDS011;14483;47.844;9.660;2024-03-25T05:31:38;9.85;;;3.03;;
26920;SDS011;14483;47.844;9.660;2024-03-25T05:34:06;9.43;;;3.40;;
26920;SDS011;14483;47.844;9.660;2024-03-25T05:36:31;12.30;;;2.88;;
26920;SDS011;14483;47.844;9.660;2024-03-25T05:38:56;12.00;;;3.65;;
26920;SDS011;14483;47.844;9.660;2024-03-25T05:41:22;16.10;;;4.38;;
26920;SDS011;14483;47.844;9.660;2024-03-25T05:43:47;12.90;;;3.50;;
26920;SDS011;14483;47.844;9.660;2024-03-25T05:46:13;12.45;;;2.42;;
26920;SDS011;14483;47.844;9.660;2024-03-25T05:48:38;7.30;;;2.17;;
26920;SDS011;14483;47.844;9.660;2024-03-25T05:51:05;5.65;;;2.13;;
26920;SDS011;14483;47.844;9.660;2024-03-25T05:53:31;5.95;;;1.75;;
26920;SDS011;14483;47.844;9.660;2024-03-25T05:55:56;5.88;;;1.55;;
26920;SDS011;14483;47.844;9.660;2024-03-25T05:58:22;5.05;;;1.52;;
26920;SDS011;14483;47.844;9.660;2024-03-25T06:00:48;3.88;;;1.10;;
26920;SDS011;14483;47.844;9.660;2024-03-25T06:03:13;3.60;;;1.33;;
26920;SDS011;14483;47.844;9.660;2024-03-25T06:05:39;3.72;;;1.00;;
26920;SDS011;14483;47.844;9.660;2024-03-25T06:08:06;2.72;;;0.90;;
26920;SDS011;14483;47.844;9.660;2024-03-25T06:10:35;3.88;;;0.80;;
26920;SDS011;14483;47.844;9.660;2024-03-25T06:13:00;2.08;;;0.93;;
26920;SDS011;14483;47.844;9.660;2024-03-25T06:15:25;1.20;;;0.70;;
26920;SDS011;14483;47.844;9.660;2024-03-25T06:17:51;2.47;;;1.02;;
26920;SDS011;14483;47.844;9.660;2024-03-25T06:20:16;3.05;;;1.00;;
26920;SDS011;14483;47.844;9.660;2024-03-25T06:22:42;2.70;;;0.68;;
26920;SDS011;14483;47.844;9.660;2024-03-25T06:25:09;2.17;;;0.90;;
26920;SDS011;14483;47.844;9.660;2024-03-25T06:27:34;2.30;;;0.90;;
26920;SDS011;14483;47.844;9.660;2024-03-25T06:29:59;1.83;;;0.90;;
26920;SDS011;14483;47.844;9.660;2024-03-25T06:32:40;3.03;;;1.00;;
26920;SDS011;14483;47.844;9.660;2024-03-25T06:35:23;2.08;;;0.70;;
26920;SDS011;14483;47.844;9.660;2024-03-25T06:37:49;3.28;;;0.88;;
26920;SDS011;14483;47.844;9.660;2024-03-25T06:40:16;1.75;;;1.25;;
26920;SDS011;14483;47.844;9.660;2024-03-25T06:42:41;1.55;;;0.90;;
26920;SDS011;14483;47.844;9.660;2024-03-25T06:45:07;7.18;;;1.58;;
26920;SDS011;14483;47.844;9.660;2024-03-25T06:47:32;3.85;;;1.40;;
26920;SDS011;14483;47.844;9.660;2024-03-25T06:49:58;8.15;;;1.75;;
26920;SDS011;14483;47.844;9.660;2024-03-25T06:52:23;3.83;;;1.80;;
26920;SDS011;14483;47.844;9.660;2024-03-25T06:54:48;3.95;;;1.60;;
26920;SDS011;14483;47.844;9.660;2024-03-25T06:57:15;4.40;;;1.80;;
26920;SDS011;14483;47.844;9.660;2024-03-25T06:59:41;4.13;;;1.98;;
26920;SDS011;14483;47.844;9.660;2024-03-25T07:02:06;5.43;;;2.47;;
26920;SDS011;14483;47.844;9.660;2024-03-25T07:04:32;3.63;;;1.77;;
26920;SDS011;14483;47.844;9.660;2024-03-25T07:06:57;10.05;;;2.03;;
26920;SDS011;14483;47.844;9.660;2024-03-25T07:09:22;3.95;;;1.63;;
26920;SDS011;14483;47.844;9.660;2024-03-25T07:11:48;3.90;;;1.73;;
26920;SDS011;14483;47.844;9.660;2024-03-25T07:14:15;6.38;;;1.60;;
26920;SDS011;14483;47.844;9.660;2024-03-25T07:16:40;5.80;;;2.15;;
26920;SDS011;14483;47.844;9.660;2024-03-25T07:19:05;4.50;;;1.73;;
26920;SDS011;14483;47.844;9.660;2024-03-25T07:21:31;8.25;;;2.00;;
26920;SDS011;14483;47.844;9.660;2024-03-25T07:23:56;7.53;;;2.13;;
26920;SDS011;14483;47.844;9.660;2024-03-25T07:26:22;4.88;;;1.92;;
26920;SDS011;14483;47.844;9.660;2024-03-25T07:28:47;6.10;;;1.77;;
26920;SDS011;14483;47.844;9.660;2024-03-25T07:31:14;5.65;;;1.45;;
26920;SDS011;14483;47.844;9.660;2024-03-25T07:33:39;2.83;;;1.52;;
26920;SDS011;14483;47.844;9.660;2024-03-25T07:36:05;2.65;;;1.23;;
26920;SDS011;14483;47.844;9.660;2024-03-25T07:38:30;2.92;;;1.23;;
26920;SDS011;14483;47.844;9.660;2024-03-25T07:40:56;5.22;;;1.35;;
26920;SDS011;14483;47.844;9.660;2024-03-25T07:43:21;4.10;;;1.65;;
26920;SDS011;14483;47.844;9.660;2024-03-25T07:45:47;2.75;;;1.00;;
26920;SDS011;14483;47.844;9.660;2024-03-25T07:48:13;5.07;;;1.75;;
26920;SDS011;14483;47.844;9.660;2024-03-25T07:50:39;2.88;;;1.20;;
26920;SDS011;14483;47.844;9.660;2024-03-25T07:53:05;3.53;;;1.20;;
26920;SDS011;14483;47.844;9.660;2024-03-25T07:55:30;3.70;;;1.30;;
26920;SDS011;14483;47.844;9.660;2024-03-25T07:57:56;7.43;;;1.17;;
26920;SDS011;14483;47.844;9.660;2024-03-25T08:00:21;3.55;;;1.10;;
26920;SDS011;14483;47.844;9.660;2024-03-25T08:02:47;4.57;;;1.88;;
26920;SDS011;14483;47.844;9.660;2024-03-25T08:05:14;4.50;;;1.30;;
26920;SDS011;14483;47.844;9.660;2024-03-25T08:07:39;4.78;;;1.20;;
26920;SDS011;14483;47.844;9.660;2024-03-25T08:10:05;5.13;;;1.35;;
26920;SDS011;14483;47.844;9.660;2024-03-25T08:12:30;4.35;;;1.00;;
26920;SDS011;14483;47.844;9.660;2024-03-25T08:14:56;3.22;;;0.90;;
26920;SDS011;14483;47.844;9.660;2024-03-25T08:17:21;4.50;;;1.20;;
26920;SDS011;14483;47.844;9.660;2024-03-25T08:19:47;3.92;;;0.98;;
26920;SDS011;14483;47.844;9.660;2024-03-25T08:22:13;2.72;;;1.23;;
26920;SDS011;14483;47.844;9.660;2024-03-25T08:24:39;5.05;;;1.13;;
26920;SDS011;14483;47.844;9.660;2024-03-25T08:27:04;4.43;;;1.20;;
26920;SDS011;14483;47.844;9.660;2024-03-25T08:29:30;3.15;;;1.08;;
26920;SDS011;14483;47.844;9.660;2024-03-25T08:31:55;3.55;;;1.58;;
26920;SDS011;14483;47.844;9.660;2024-03-25T08:34:21;3.58;;;0.93;;
26920;SDS011;14483;47.844;9.660;2024-03-25T08:36:46;3.35;;;1.08;;
26920;SDS011;14483;47.844;9.660;2024-03-25T08:39:13;3.15;;;0.95;;
26920;SDS011;14483;47.844;9.660;2024-03-25T08:41:38;3.45;;;1.15;;
26920;SDS011;14483;47.844;9.660;2024-03-25T08:44:04;3.92;;;1.00;;
26920;SDS011;14483;47.844;9.660;2024-03-25T08:46:29;3.72;;;1.52;;
26920;SDS011;14483;47.844;9.660;2024-03-25T08:48:55;3.67;;;1.20;;
26920;SDS011;14483;47.844;9.660;2024-03-25T08:51:20;5.00;;;0.98;;
26920;SDS011;14483;47.844;9.660;2024-03-25T08:53:46;4.57;;;1.08;;
26920;SDS011;14483;47.844;9.660;2024-03-25T08:56:12;6.85;;;1.00;;
26920;SDS011;14483;47.844;9.660;2024-03-25T08:58:38;2.15;;;0.77;;
26920;SDS011;14483;47.844;9.660;2024-03-25T09:01:03;2.70;;;0.73;;
26920;SDS011;14483;47.844;9.660;2024-03-25T09:03:29;3.10;;;1.00;;
26920;SDS011;14483;47.844;9.660;2024-03-25T09:05:54;3.67;;;1.15;;
26920;SDS011;14483;47.844;9.660;2024-03-25T09:08:20;2.00;;;0.90;;
26920;SDS011;14483;47.844;9.660;2024-03-25T09:10:45;2.33;;;0.88;;
26920;SDS011;14483;47.844;9.660;2024-03-25T09:13:30;2.50;;;1.25;;
26920;SDS011;14483;47.844;9.660;2024-03-25T09:15:56;3.33;;;0.93;;
26920;SDS011;14483;47.844;9.660;2024-03-25T09:18:21;5.10;;;1.00;;
26920;SDS011;14483;47.844;9.660;2024-03-25T09:20:46;2.55;;;0.90;;
26920;SDS011;14483;47.844;9.660;2024-03-25T09:23:12;4.35;;;1.38;;
26920;SDS011;14483;47.844;9.660;2024-03-25T09:25:37;2.15;;;0.73;;
26920;SDS011;14483;47.844;9.660;2024-03-25T09:28:03;1.67;;;0.63;;
26920;SDS011;14483;47.844;9.660;2024-03-25T09:30:30;2.35;;;0.80;;
26920;SDS011;14483;47.844;9.660;2024-03-25T09:32:55;5.30;;;0.88;;
26920;SDS011;14483;47.844;9.660;2024-03-25T09:35:21;6.28;;;0.90;;
26920;SDS011;14483;47.844;9.660;2024-03-25T09:37:46;3.28;;;1.08;;
26920;SDS011;14483;47.844;9.660;2024-03-25T09:40:12;6.30;;;0.70;;
26920;SDS011;14483;47.844;9.660;2024-03-25T09:42:40;3.28;;;0.88;;
26920;SDS011;14483;47.844;9.660;2024-03-25T09:45:07;6.28;;;0.90;;
26920;SDS011;14483;47.844;9.660;2024-03-25T09:47:34;3.63;;;0.70;;
26920;SDS011;14483;47.844;9.660;2024-03-25T09:50:01;1.45;;;0.90;;
26920;SDS011;14483;47.844;9.660;2024-03-25T09:52:27;4.25;;;0.70;;
26920;SDS011;14483;47.844;9.660;2024-03-25T09:54:53;2.75;;;0.60;;
26920;SDS011;14483;47.844;9.660;2024-03-25T09:57:18;2.80;;;1.05;;
26920;SDS011;14483;47.844;9.660;2024-03-25T09:59:44;4.82;;;0.60;;
26920;SDS011;14483;47.844;9.660;2024-03-25T10:02:10;0.77;;;0.47;;
26920;SDS011;14483;47.844;9.660;2024-03-25T10:04:38;1.85;;;0.60;;
26920;SDS011;14483;47.844;9.660;2024-03-25T10:07:04;3.70;;;0.77;;
26920;SDS011;14483;47.844;9.660;2024-03-25T10:09:30;1.48;;;0.68;;
26920;SDS011;14483;47.844;9.660;2024-03-25T10:11:56;3.53;;;0.60;;
26920;SDS011;14483;47.844;9.660;2024-03-25T10:14:22;1.50;;;0.57;;
26920;SDS011;14483;47.844;9.660;2024-03-25T10:16:48;2.60;;;0.63;;
26920;SDS011;14483;47.844;9.660;2024-03-25T10:19:14;1.88;;;0.68;;
26920;SDS011;14483;47.844;9.660;2024-03-25T10:21:41;3.08;;;0.60;;
26920;SDS011;14483;47.844;9.660;2024-03-25T10:24:06;3.15;;;0.60;;
26920;SDS011;14483;47.844;9.660;2024-03-25T10:26:32;3.05;;;0.60;;
26920;SDS011;14483;47.844;9.660;2024-03-25T10:29:01;0.47;;;0.30;;
26920;SDS011;14483;47.844;9.660;2024-03-25T10:31:27;1.35;;;0.45;;
26920;SDS011;14483;47.844;9.660;2024-03-25T10:33:52;2.63;;;0.50;;
26920;SDS011;14483;47.844;9.660;2024-03-25T10:36:19;1.98;;;0.60;;
26920;SDS011;14483;47.844;9.660;2024-03-25T10:38:46;2.00;;;0.60;;
26920;SDS011;14483;47.844;9.660;2024-03-25T10:41:12;1.50;;;0.30;;
26920;SDS011;14483;47.844;9.660;2024-03-25T10:43:38;1.80;;;0.60;;
26920;SDS011;14483;47.844;9.660;2024-03-25T10:46:04;1.05;;;0.52;;
26920;SDS011;14483;47.844;9.660;2024-03-25T10:48:30;1.05;;;0.30;;
26920;SDS011;14483;47.844;9.660;2024-03-25T10:50:56;1.48;;;0.40;;
26920;SDS011;14483;47.844;9.660;2024-03-25T10:53:22;1.13;;;0.60;;
26920;SDS011;14483;47.844;9.660;2024-03-25T10:55:50;3.03;;;0.50;;
26920;SDS011;14483;47.844;9.660;2024-03-25T10:58:15;1.15;;;0.50;;
26920;SDS011;14483;47.844;9.660;2024-03-25T11:00:41;5.22;;;0.50;;
26920;SDS011;14483;47.844;9.660;2024-03-25T11:03:07;1.20;;;0.32;;
26920;SDS011;14483;47.844;9.660;2024-03-25T11:05:33;2.30;;;0.40;;
26920;SDS011;14483;47.844;9.660;2024-03-25T11:07:58;2.83;;;0.55;;
26920;SDS011;14483;47.844;9.660;2024-03-25T11:10:34;2.13;;;0.47;;
26920;SDS011;14483;47.844;9.660;2024-03-25T11:13:09;2.03;;;0.50;;
26920;SDS011;14483;47.844;9.660;2024-03-25T11:15:35;3.40;;;0.68;;
26920;SDS011;14483;47.844;9.660;2024-03-25T11:18:01;2.58;;;0.57;;
26920;SDS011;14483;47.844;9.660;2024-03-25T11:20:26;1.98;;;0.45;;
26920;SDS011;14483;47.844;9.660;2024-03-25T11:22:52;0.73;;;0.40;;
26920;SDS011;14483;47.844;9.660;2024-03-25T11:25:19;2.83;;;0.50;;
26920;SDS011;14483;47.844;9.660;2024-03-25T11:27:45;0.50;;;0.30;;
26920;SDS011;14483;47.844;9.660;2024-03-25T11:30:12;1.55;;;0.50;;
26920;SDS011;14483;47.844;9.660;2024-03-25T11:32:44;1.42;;;0.40;;
26920;SDS011;14483;47.844;9.660;2024-03-25T11:35:09;1.05;;;0.47;;
26920;SDS011;14483;47.844;9.660;2024-03-25T11:37:38;2.50;;;0.40;;
26920;SDS011;14483;47.844;9.660;2024-03-25T11:40:04;1.60;;;0.50;;
26920;SDS011;14483;47.844;9.660;2024-03-25T11:42:29;1.05;;;0.25;;
26920;SDS011;14483;47.844;9.660;2024-03-25T11:44:55;0.85;;;0.30;;
26920;SDS011;14483;47.844;9.660;2024-03-25T11:47:22;0.65;;;0.30;;
26920;SDS011;14483;47.844;9.660;2024-03-25T11:49:47;0.90;;;0.30;;
26920;SDS011;14483;47.844;9.660;2024-03-25T11:52:13;1.67;;;0.20;;
26920;SDS011;14483;47.844;9.660;2024-03-25T11:54:38;1.83;;;0.22;;
26920;SDS011;14483;47.844;9.660;2024-03-25T11:57:04;1.85;;;0.20;;
26920;SDS011;14483;47.844;9.660;2024-03-25T11:59:29;1.10;;;0.20;;
26920;SDS011;14483;47.844;9.660;2024-03-25T12:01:55;2.47;;;0.38;;
26920;SDS011;14483;47.844;9.660;2024-03-25T12:04:22;1.60;;;0.75;;
26920;SDS011;14483;47.844;9.660;2024-03-25T12:06:47;0.70;;;0.60;;
26920;SDS011;14483;47.844;9.660;2024-03-25T12:09:12;0.82;;;0.40;;
26920;SDS011;14483;47.844;9.660;2024-03-25T12:11:56;0.80;;;0.20;;
26920;SDS011;14483;47.844;9.660;2024-03-25T12:14:22;0.75;;;0.40;;
26920;SDS011;14483;47.844;9.660;2024-03-25T12:16:48;0.95;;;0.30;;
26920;SDS011;14483;47.844;9.660;2024-03-25T12:19:14;1.50;;;0.52;;
26920;SDS011;14483;47.844;9.660;2024-03-25T12:21:41;2.72;;;0.30;;
26920;SDS011;14483;47.844;9.660;2024-03-25T12:24:07;0.25;;;0.20;;
26920;SDS011;14483;47.844;9.660;2024-03-25T12:26:32;1.30;;;0.40;;
26920;SDS011;14483;47.844;9.660;2024-03-25T12:28:58;0.57;;;0.30;;
26920;SDS011;14483;47.844;9.660;2024-03-25T12:31:23;3.92;;;1.33;;
26920;SDS011;14483;47.844;9.660;2024-03-25T12:33:49;1.85;;;0.55;;
26920;SDS011;14483;47.844;9.660;2024-03-25T12:36:14;0.88;;;0.28;;
26920;SDS011;14483;47.844;9.660;2024-03-25T12:38:41;1.92;;;0.30;;
26920;SDS011;14483;47.844;9.660;2024-03-25T12:41:07;2.53;;;0.50;;
26920;SDS011;14483;47.844;9.660;2024-03-25T12:43:33;1.15;;;0.30;;
26920;SDS011;14483;47.844;9.660;2024-03-25T12:45:58;5.90;;;0.95;;
26920;SDS011;14483;47.844;9.660;2024-03-25T12:48:24;0.30;;;0.10;;
26920;SDS011;14483;47.844;9.660;2024-03-25T12:50:49;1.90;;;0.10;;
26920;SDS011;14483;47.844;9.660;2024-03-25T12:53:16;2.22;;;0.30;;
26920;SDS011;14483;47.844;9.660;2024-03-25T12:55:43;0.47;;;0.20;;
26920;SDS011;14483;47.844;9.660;2024-03-25T12:58:09;0.43;;;0.20;;
26920;SDS011;14483;47.844;9.660;2024-03-25T13:00:34;0.30;;;0.20;;
26920;SDS011;14483;47.844;9.660;2024-03-25T13:03:00;0.25;;;0.10;;
26920;SDS011;14483;47.844;9.660;2024-03-25T13:05:25;0.82;;;0.35;;
26920;SDS011;14483;47.844;9.660;2024-03-25T13:07:51;0.40;;;0.20;;
26920;SDS011;14483;47.844;9.660;2024-03-25T13:10:16;0.70;;;0.20;;
26920;SDS011;14483;47.844;9.660;2024-03-25T13:12:43;0.30;;;0.20;;
26920;SDS011;14483;47.844;9.660;2024-03-25T13:15:09;1.77;;;0.50;;
26920;SDS011;14483;47.844;9.660;2024-03-25T13:17:34;0.85;;;0.10;;
26920;SDS011;14483;47.844;9.660;2024-03-25T13:19:59;1.65;;;0.20;;
26920;SDS011;14483;47.844;9.660;2024-03-25T13:22:25;0.73;;;0.13;;
26920;SDS011;14483;47.844;9.660;2024-03-25T13:24:50;1.60;;;0.20;;
26920;SDS011;14483;47.844;9.660;2024-03-25T13:27:16;0.52;;;0.20;;
26920;SDS011;14483;47.844;9.660;2024-03-25T13:29:43;2.00;;;0.10;;
26920;SDS011;14483;47.844;9.660;2024-03-25T13:32:08;0.65;;;0.10;;
26920;SDS011;14483;47.844;9.660;2024-03-25T13:34:33;0.47;;;0.20;;
26920;SDS011;14483;47.844;9.660;2024-03-25T13:36:59;1.42;;;0.20;;
26920;SDS011;14483;47.844;9.660;2024-03-25T13:39:24;0.52;;;0.10;;
26920;SDS011;14483;47.844;9.660;2024-03-25T13:41:50;0.38;;;0.20;;
26920;SDS011;14483;47.844;9.660;2024-03-25T13:44:15;0.85;;;0.20;;
26920;SDS011;14483;47.844;9.660;2024-03-25T13:46:42;0.38;;;0.20;;
26920;SDS011;14483;47.844;9.660;2024-03-25T13:49:07;2.25;;;0.40;;
26920;SDS011;14483;47.844;9.660;2024-03-25T13:51:33;1.17;;;0.30;;
26920;SDS011;14483;47.844;9.660;2024-03-25T13:53:58;1.05;;;0.60;;
26920;SDS011;14483;47.844;9.660;2024-03-25T13:56:24;1.27;;;0.20;;
26920;SDS011;14483;47.844;9.660;2024-03-25T13:58:49;0.70;;;0.30;;
26920;SDS011;14483;47.844;9.660;2024-03-25T14:01:14;0.68;;;0.20;;
26920;SDS011;14483;47.844;9.660;2024-03-25T14:03:41;1.67;;;0.10;;
26920;SDS011;14483;47.844;9.660;2024-03-25T14:06:07;0.32;;;0.10;;
26920;SDS011;14483;47.844;9.660;2024-03-25T14:08:32;0.93;;;0.13;;
26920;SDS011;14483;47.844;9.660;2024-03-25T14:10:58;1.65;;;0.20;;
26920;SDS011;14483;47.844;9.660;2024-03-25T14:13:24;1.02;;;0.30;;
26920;SDS011;14483;47.844;9.660;2024-03-25T14:15:49;0.45;;;0.30;;
26920;SDS011;14483;47.844;9.660;2024-03-25T14:18:14;0.38;;;0.10;;
26920;SDS011;14483;47.844;9.660;2024-03-25T14:20:41;0.93;;;0.20;;
26920;SDS011;14483;47.844;9.660;2024-03-25T14:23:07;0.10;;;0.10;;
26920;SDS011;14483;47.844;9.660;2024-03-25T14:25:33;0.22;;;0.22;;
26920;SDS011;14483;47.844;9.660;2024-03-25T14:27:58;1.55;;;0.20;;
26920;SDS011;14483;47.844;9.660;2024-03-25T14:30:23;0.50;;;0.10;;
26920;SDS011;14483;47.844;9.660;2024-03-25T14:32:49;0.75;;;0.20;;
26920;SDS011;14483;47.844;9.660;2024-03-25T14:35:14;0.10;;;0.10;;
26920;SDS011;14483;47.844;9.660;2024-03-25T14:37:41;0.40;;;0.20;;
26920;SDS011;14483;47.844;9.660;2024-03-25T14:40:07;1.90;;;0.38;;